Mustang, Nevada
Current Conditions -  °F | °C
As of 1:55 AM on Saturday 22 Nov 2014 (Local Time) from KRNO Reporting Station
Broken Clouds Broken Clouds  
Wind Chill: 47°   Ceiling: 5000
Heat Index: 47°   Visibility: 10mi
Dew Point: 36°   Wind: 0mph
Humidity: 66%   Direction: NA
Pressure: 30.01"   Gusts: NA
Location:  39.5403°N, 119.672°W
Report Text: KRNO 220955Z 00000KT 10SM BKN050 BKN110 BKN180 08/02 A3001 RMK AO2 SLP141 T00830022
Loading
Personal Weather Stations






























Interactive Weather Map New forecast layout! Learn more

10-Day Weather Forecast

Advertisements
Track Severe Weather on mobile